Airfield :
LOGIN :

Register | Disclaimer

   EN    FR    IT 

 










Legend :    VFR   Marginal VFR   IFR   Intensive IFR   Very Intensive IFR
Visi :
Ceiling :
>= 8 km
>= 3000ft
5 to 8 km
1000 to 3000 ft
1500m to 5 km
500 to 1000 ft
800 to 1500m
200 to 500 ft
< 800m
< 200 ft
Symbols :   Thunderstorms  Fog  Heavy snow  Heavy precipitations  Wind > 20 kt
SIGMETs :     Misc.  Thunderstorms  Icing  Turbulence  Mountain Waves  Volcanic Ashes






- Airport Elevation : 74 ft
- IATA code : LRH


LFBH - La Rochelle Ile de Ré

CURRENT METAR :
  • 252200Z AUTO 25007KT 9999 BKN043 BKN054 BKN068 13/08 Q1006 TEMPO 4000 SHRA BKN030TCU

EXPIRED METARs :
  • 252130Z AUTO 25007KT 210V270 9999 SCT039 BKN054 BKN064 13/08 Q1006 TEMPO 4000 SHRA BKN030TCU
  • 252100Z AUTO 24008KT CAVOK 13/08 Q1007 TEMPO 4000 SHRA BKN030TCU
  • 252030Z AUTO 24005KT 9999 FEW031 OVC240 12/09 Q1006 TEMPO 4000 SHRA BKN030TCU
  • 252000Z AUTO 26007KT CAVOK 12/09 Q1006 TEMPO 4000 SHRA BKN030TCU
  • 251930Z AUTO 30012KT 9999 FEW027 SCT068 BKN250 12/10 Q1005 TEMPO 4000 SHRA BKN030TCU

TAF TAF LFBH
Valid from the 25 at 18:00 until the 26 at 18:00 UTC


251700Z 2518/2618 25012KT 9999 BKN030TCU
TEMPO 2518/2618 4000 SHRA BKN030TCU
PROB30
TEMPO 2600/2618 25015G30KT 3000 -TSRA BKN020CB
BECMG 2610/2612 27015G25KT
ATIS : +33 5 46 00 13 92



MET'MAP, your aeronautical weather chart ! - Copyright ORBIFLY December 2007 - Disclaimer

ORBIFLY MET'MAP TEAM :

Programming & Development : Alexandra Zaïnal
Concept & original design : Baudouin d'Aumeries
Assistance for programming : Marc-Olivier Méhu
Technical & hardware support : Manuel Goepfert

Contact : metmap@orbifly.com




SOURCES & CREDITS :

   NOAA